Pryor, MT (59066)

4:47 PM MDT on August 20, 2014 (GMT -0600)
Hillcrest and southridge | Change Station
CLOSE
Current Station
Personal Weather Station
Location: Billings, MT
Elevation: 3681 ft
Nearby Weather Stations

Elev 3681 ft 45.69 °N, 108.56 °W | Updated 11 minutes ago

Scattered Clouds
Scattered Clouds
84.2 °F
Feels Like 82 °F
N
9.8
Wind Variable Wind from West

Today
High -- | Low -- °F
--% Chance of Precip.
Yesterday
High -- | Low -- °F
Precip. -- in
6:21 AM 8:12 PM
Waning Crescent, 18% visible
Pressure 29.72 in
Visibility 10.0 miles
Clouds Few 8000 ft
Scattered Clouds 15000 ft
Heat Index 82 °F
Dew Point 46 °F
Humidity 26%
Rainfall 0.00 in
Snow Depth Not available.
UV 5 out of 12
Pollen 7.90 out of 12
Air Quality Not available.
Flu Activity Not available.
METAR KBIL 202153Z 13005KT 10SM FEW080 SCT150 27/07 A2983 RMK AO2 SLP064 CB DSNT N SW SHRA DSNT S-NE T02720072

More Conditions Fewer Conditions

Pressure 29.72 in
Visibility 10.0 miles
Clouds Few 8000 ft
Scattered Clouds 15000 ft
Heat Index 82 °F
Dew Point 46 °F
Humidity 26%
Rainfall 0.00 in
Snow Depth Not available.
UV 5 out of 12
Pollen 7.90 out of 12
Air Quality Not available.
Flu Activity Not available.
METAR KBIL 202153Z 13005KT 10SM FEW080 SCT150 27/07 A2983 RMK AO2 SLP064 CB DSNT N SW SHRA DSNT S-NE T02720072

More Conditions Fewer Conditions

10-Day Weather Forecast

Almanac

Astronomy

Aug. 20, 2014 Rise Set
Actual Time 6:21 AM MDT 8:12 PM MDT
Civil Twilight 5:49 AM MDT 8:44 PM MDT
Nautical Twilight 5:10 AM MDT 9:23 PM MDT
Astronomical Twilight 4:28 AM MDT 10:05 PM MDT
Moon 1:58 AM MDT 5:05 PM MDT
Length of Visible Light 14h 55m
Length of Day
13h 51m
Tomorrow will be 2m 56s shorter.
Waning Crescent, 18% of the Moon is Illuminated
Today
Waning Crescent
Aug 25
New
Sep 2
First Quarter
Sep 8
Full
Sep 15
Last Quarter

Today's Extremes

State Highs State Lows

Community

WunderPhotos

Upload Photos

1,745,791 photos uploaded!

Nearby

Snow Depth

Station Depth Elevation
Cole Creek 0 in 7850 ft
White Mill 1 in 8700 ft
Northeast Entrance 1 in 7350 ft
Crystal Lake 0 in 6050 ft
Porcupine 0 in 6500 ft

Earthquake Activity

City Distance Mag. Time & Date
No recent earthquake activity has been reported nearby.
Minimum magnitude displayed is 2.5.

Coastal Water Temperatures

Place Temperature
No Stations Reporting

Nearby Weather Stations